KCEY/CEY METAR and TAF weather

Enter ICAO airport designator
Station Type Date Time Source
KCEY METAR 2019/12/11 17:35 UTC NOAA

KCEY 111735Z AUTO 20006KT 10SM CLR 05/M04 A3055 RMK AO1


Station Type Date Time Source
KCEY Decoded METAR 2019/12/11 17:35 UTC NOAA

Station name not available
Dec 11, 2019 - 12:35 PM EST / 2019.12.11 1735 UTC
Wind: from the SSW (200 degrees) at 7 MPH (6 KT):0
Visibility: 10 mile(s):0
Sky conditions: clear
Temperature: 41 F (5 C)
Dew Point: 24 F (-4 C)
Relative Humidity: 52%
Pressure (altimeter): 30.55 in. Hg (1034 hPa)
ob: KCEY 111735Z AUTO 20006KT 10SM CLR 05/M04 A3055 RMK AO1
cycle: 17

Station Type Date Time Source
KCEY TAF UTC NOAA

Error!

Example: see airport list